createdAt,value
2022-10-23T00:01:34.232Z,14.21
2022-10-23T00:04:07.665Z,14.15
2022-10-23T00:06:36.011Z,14.11
2022-10-23T00:09:07.163Z,14.16
2022-10-23T00:11:35.687Z,14.37
2022-10-23T00:14:06.625Z,14.37
2022-10-23T00:16:34.779Z,14.33
2022-10-23T00:19:02.078Z,14.35
2022-10-23T00:21:29.375Z,14.28
2022-10-23T00:23:56.875Z,14.32
2022-10-23T00:26:24.283Z,14.40
2022-10-23T00:28:53.580Z,14.30
2022-10-23T00:31:22.164Z,14.18
2022-10-23T00:33:49.913Z,14.26
2022-10-23T00:36:18.881Z,14.21
2022-10-23T00:38:47.503Z,14.09
2022-10-23T00:41:18.659Z,13.99
2022-10-23T00:44:06.215Z,14.07
2022-10-23T00:46:34.473Z,14.00
2022-10-23T00:49:03.470Z,14.01
2022-10-23T00:51:38.395Z,13.91
2022-10-23T00:57:00.612Z,13.85
2022-10-23T00:59:29.392Z,13.92
2022-10-23T01:01:56.915Z,13.99
2022-10-23T01:04:25.537Z,13.98
2022-10-23T01:07:17.033Z,13.94
2022-10-23T01:10:14.391Z,13.94
2022-10-23T01:12:55.722Z,13.88
2022-10-23T01:15:47.016Z,13.81
2022-10-23T01:18:38.700Z,13.93
2022-10-23T01:21:53.539Z,14.01
2022-10-23T01:24:37.637Z,13.96
2022-10-23T01:27:13.869Z,13.83
2022-10-23T01:29:50.649Z,13.78
2022-10-23T01:32:48.535Z,13.82
2022-10-23T01:35:26.629Z,14.00
2022-10-23T01:38:18.325Z,14.02
2022-10-23T01:41:13.743Z,13.92
2022-10-23T01:43:56.927Z,13.87
2022-10-23T01:46:28.429Z,13.83
2022-10-23T01:48:58.672Z,13.77
2022-10-23T01:51:29.199Z,13.69
2022-10-23T01:54:06.474Z,13.68
2022-10-23T01:56:38.182Z,13.60
2022-10-23T01:59:11.007Z,13.57
2022-10-23T02:01:44.704Z,13.57
2022-10-23T02:04:18.009Z,13.59
2022-10-23T02:06:45.981Z,13.61
2022-10-23T02:09:13.353Z,13.60
2022-10-23T02:11:51.633Z,13.46
2022-10-23T02:14:52.161Z,13.59
2022-10-23T02:17:51.269Z,13.58
2022-10-23T02:20:26.628Z,13.54
2022-10-23T02:23:19.985Z,13.44
2022-10-23T02:25:53.864Z,13.37
2022-10-23T02:28:28.193Z,13.43
2022-10-23T02:31:00.711Z,13.48
2022-10-23T02:33:31.211Z,13.52
2022-10-23T02:35:58.648Z,13.38
2022-10-23T02:38:43.498Z,13.23
2022-10-23T02:41:29.911Z,13.18
2022-10-23T02:44:41.863Z,13.06
2022-10-23T02:47:37.249Z,13.15
2022-10-23T02:50:24.848Z,13.08
2022-10-23T02:53:16.638Z,12.97
2022-10-23T02:56:29.450Z,13.08
2022-10-23T02:59:25.054Z,13.12
2022-10-23T03:02:03.113Z,13.26
2022-10-23T03:04:32.964Z,13.33
2022-10-23T03:07:00.468Z,13.27
2022-10-23T03:09:28.874Z,13.08
2022-10-23T03:11:56.568Z,13.13
2022-10-23T03:14:25.149Z,13.12
2022-10-23T03:16:52.680Z,13.03
2022-10-23T03:19:20.030Z,13.12
2022-10-23T03:21:47.346Z,12.96
2022-10-23T03:24:14.724Z,12.91
2022-10-23T03:26:43.991Z,12.94
2022-10-23T03:29:11.352Z,12.94
2022-10-23T03:31:44.898Z,12.86
2022-10-23T03:34:13.464Z,12.83
2022-10-23T03:36:41.558Z,12.87
2022-10-23T03:39:10.021Z,12.88
2022-10-23T03:41:37.245Z,12.99
2022-10-23T03:46:37.269Z,13.10
2022-10-23T03:49:05.910Z,13.19
2022-10-23T03:51:33.746Z,12.93
2022-10-23T03:54:01.218Z,12.95
2022-10-23T03:56:28.596Z,13.03
2022-10-23T03:58:55.831Z,13.02
2022-10-23T04:01:26.782Z,13.03
2022-10-23T04:03:54.841Z,13.25
2022-10-23T04:06:24.765Z,13.38
2022-10-23T04:08:56.260Z,13.27
2022-10-23T04:11:23.569Z,13.14
2022-10-23T04:13:50.859Z,13.05
2022-10-23T04:16:18.462Z,12.87
2022-10-23T04:18:46.064Z,12.96
2022-10-23T04:21:13.370Z,12.93
2022-10-23T04:23:40.726Z,13.08
2022-10-23T04:26:16.042Z,13.10
2022-10-23T04:28:43.301Z,12.94
2022-10-23T04:31:10.799Z,13.24
2022-10-23T04:33:41.219Z,13.33
2022-10-23T04:36:09.410Z,13.18
2022-10-23T04:38:36.705Z,13.16
2022-10-23T04:41:06.586Z,13.13
2022-10-23T04:43:34.681Z,13.24
2022-10-23T04:46:03.868Z,13.14
2022-10-23T04:48:31.181Z,13.31
2022-10-23T04:51:17.284Z,13.40
2022-10-23T04:54:03.038Z,13.24
2022-10-23T04:56:47.283Z,13.13
2022-10-23T04:59:21.184Z,13.04
2022-10-23T05:01:49.269Z,13.07
2022-10-23T05:04:18.017Z,12.98
2022-10-23T05:07:04.119Z,12.94
2022-10-23T05:09:54.123Z,13.04
2022-10-23T05:12:50.370Z,13.24
2022-10-23T05:15:18.100Z,13.20
2022-10-23T05:17:48.406Z,13.13
2022-10-23T05:20:20.422Z,13.07
2022-10-23T05:22:51.469Z,13.13
2022-10-23T05:25:21.468Z,13.05
2022-10-23T05:27:53.296Z,13.36
2022-10-23T05:30:21.823Z,13.38
2022-10-23T05:32:49.508Z,13.26
2022-10-23T05:35:23.496Z,13.24
2022-10-23T05:37:53.998Z,13.34
2022-10-23T05:40:24.446Z,13.43
2022-10-23T05:42:58.336Z,13.46
2022-10-23T05:45:40.856Z,13.59
2022-10-23T05:48:37.137Z,13.68
2022-10-23T05:51:23.661Z,13.69
2022-10-23T05:54:20.158Z,13.67
2022-10-23T05:59:48.792Z,13.79
2022-10-23T06:02:19.279Z,13.95
2022-10-23T06:04:54.229Z,14.07
2022-10-23T06:07:39.814Z,14.11
2022-10-23T06:10:08.387Z,14.21
2022-10-23T06:12:40.278Z,14.23
2022-10-23T06:15:11.144Z,14.35
2022-10-23T06:18:07.703Z,14.54
2022-10-23T06:20:39.693Z,14.54
2022-10-23T06:23:21.379Z,14.65
2022-10-23T06:26:12.635Z,14.83
2022-10-23T06:28:56.182Z,15.00
2022-10-23T06:31:28.136Z,15.04
2022-10-23T06:33:58.250Z,15.07
2022-10-23T06:36:26.539Z,15.26
2022-10-23T06:41:50.678Z,15.58
2022-10-23T06:44:37.878Z,15.92
2022-10-23T06:47:14.586Z,16.18
2022-10-23T06:50:11.757Z,16.29
2022-10-23T06:52:47.113Z,16.47
2022-10-23T06:55:17.544Z,16.50
2022-10-23T06:57:45.288Z,16.75
2022-10-23T07:00:13.859Z,16.52
2022-10-23T07:02:49.874Z,16.82
2022-10-23T07:05:17.750Z,16.86
2022-10-23T07:07:45.264Z,16.97
2022-10-23T07:10:16.362Z,17.05
2022-10-23T07:12:49.097Z,17.34
2022-10-23T07:15:52.075Z,17.70
2022-10-23T07:18:25.338Z,17.68
2022-10-23T07:21:11.088Z,17.72
2022-10-23T07:23:40.534Z,17.85
2022-10-23T07:26:17.076Z,18.01
2022-10-23T07:28:47.849Z,18.18
2022-10-23T07:31:23.056Z,18.18
2022-10-23T07:34:11.722Z,17.63
2022-10-23T07:36:40.520Z,17.80
2022-10-23T07:39:07.949Z,17.96
2022-10-23T07:41:42.033Z,18.41
2022-10-23T07:44:09.431Z,18.27
2022-10-23T07:46:36.887Z,18.39
2022-10-23T07:49:04.463Z,18.84
2022-10-23T07:51:32.063Z,18.90
2022-10-23T07:54:00.548Z,19.25
2022-10-23T07:56:50.911Z,19.66
2022-10-23T07:59:22.035Z,19.81
2022-10-23T08:01:55.794Z,20.01
2022-10-23T08:04:28.655Z,19.49
2022-10-23T08:07:10.404Z,19.36
2022-10-23T08:09:41.993Z,19.75
2022-10-23T08:12:10.191Z,20.11
2022-10-23T08:14:37.512Z,20.40
2022-10-23T08:17:10.136Z,20.46
2022-10-23T08:20:01.375Z,20.41
2022-10-23T08:22:37.162Z,20.63
2022-10-23T08:25:05.068Z,20.65
2022-10-23T08:27:32.430Z,20.56
2022-10-23T08:29:59.786Z,20.38
2022-10-23T08:32:31.308Z,20.60
2022-10-23T08:35:00.406Z,20.85
2022-10-23T08:37:30.950Z,21.06
2022-10-23T08:39:58.904Z,21.43
2022-10-23T08:43:10.634Z,21.61
2022-10-23T08:46:13.265Z,21.68
2022-10-23T08:49:26.956Z,21.68
2022-10-23T08:52:14.152Z,21.83
2022-10-23T08:54:53.376Z,21.98
2022-10-23T08:57:26.855Z,22.21
2022-10-23T09:00:08.379Z,21.98
2022-10-23T09:02:43.330Z,21.96
2022-10-23T09:05:17.857Z,21.83
2022-10-23T09:07:56.867Z,21.77
2022-10-23T09:10:46.986Z,21.92
2022-10-23T09:13:35.201Z,22.35
2022-10-23T09:16:31.219Z,22.46
2022-10-23T09:18:58.878Z,22.49
2022-10-23T09:21:29.402Z,22.15
2022-10-23T09:23:57.161Z,22.24
2022-10-23T09:26:24.450Z,22.54
2022-10-23T09:29:06.463Z,22.70
2022-10-23T09:31:33.775Z,22.76
2022-10-23T09:34:02.141Z,22.80
2022-10-23T09:36:30.035Z,22.95
2022-10-23T09:38:59.845Z,23.16
2022-10-23T09:41:31.319Z,23.13
2022-10-23T09:44:21.663Z,23.22
2022-10-23T09:46:54.172Z,23.06
2022-10-23T09:49:30.610Z,23.11
2022-10-23T09:52:05.975Z,23.01
2022-10-23T09:54:56.252Z,23.24
2022-10-23T09:57:45.101Z,23.77
2022-10-23T10:00:14.359Z,23.81
2022-10-23T10:02:44.430Z,23.90
2022-10-23T10:05:33.406Z,23.70
2022-10-23T10:08:24.475Z,24.26
2022-10-23T10:10:58.178Z,24.30
2022-10-23T10:13:34.242Z,24.38
2022-10-23T10:16:21.501Z,24.30
2022-10-23T10:18:57.847Z,24.56
2022-10-23T10:22:15.415Z,24.83
2022-10-23T10:24:51.833Z,25.12
2022-10-23T10:27:28.388Z,24.31
2022-10-23T10:30:01.548Z,23.91
2022-10-23T10:32:43.963Z,24.13
2022-10-23T10:35:47.462Z,24.70
2022-10-23T10:38:17.914Z,24.60
2022-10-23T10:41:06.481Z,24.99
2022-10-23T10:43:39.482Z,24.92
2022-10-23T10:46:40.273Z,24.87
2022-10-23T10:49:19.906Z,24.74
2022-10-23T10:52:14.596Z,25.12
2022-10-23T10:55:15.292Z,25.12
2022-10-23T10:57:47.781Z,25.19
2022-10-23T11:00:21.109Z,25.44
2022-10-23T11:03:40.293Z,25.30
2022-10-23T11:06:15.523Z,25.22
2022-10-23T11:08:56.559Z,25.25
2022-10-23T11:11:32.388Z,25.13
2022-10-23T11:14:00.031Z,25.62
2022-10-23T11:16:34.386Z,25.68
2022-10-23T11:19:18.585Z,25.56
2022-10-23T11:22:12.243Z,25.40
2022-10-23T11:24:42.184Z,25.98
2022-10-23T11:27:20.560Z,25.85
2022-10-23T11:30:02.227Z,26.32
2022-10-23T11:32:49.363Z,26.00
2022-10-23T11:35:44.262Z,26.33
2022-10-23T11:38:39.258Z,25.83
2022-10-23T11:41:29.708Z,25.90
2022-10-23T11:44:05.964Z,25.60
2022-10-23T11:46:36.573Z,26.39
2022-10-23T11:49:06.588Z,26.76
2022-10-23T11:51:39.613Z,28.08
2022-10-23T11:54:15.689Z,27.32
2022-10-23T11:57:03.101Z,27.10
2022-10-23T11:59:35.778Z,26.94
2022-10-23T12:02:28.252Z,26.28
2022-10-23T12:04:56.588Z,26.29
2022-10-23T12:07:28.840Z,26.36
2022-10-23T12:10:17.899Z,26.16
2022-10-23T12:12:56.659Z,25.55
2022-10-23T12:15:26.322Z,25.83
2022-10-23T12:17:56.269Z,25.71
2022-10-23T12:20:38.702Z,25.72
2022-10-23T12:23:31.837Z,25.90
2022-10-23T12:26:17.701Z,26.18
2022-10-23T12:29:09.889Z,25.71
2022-10-23T12:32:02.503Z,25.19
2022-10-23T12:34:50.850Z,25.21
2022-10-23T12:37:31.340Z,25.32
2022-10-23T12:39:59.451Z,25.42
2022-10-23T12:42:30.389Z,25.37
2022-10-23T12:45:22.205Z,25.32
2022-10-23T12:47:50.829Z,25.19
2022-10-23T12:50:25.078Z,25.33
2022-10-23T12:52:53.610Z,25.21
2022-10-23T12:55:21.734Z,25.17
2022-10-23T12:57:49.739Z,24.99
2022-10-23T13:00:23.420Z,24.75
2022-10-23T13:03:01.925Z,24.67
2022-10-23T13:05:30.809Z,24.81
2022-10-23T13:07:59.875Z,24.67
2022-10-23T13:10:42.837Z,24.55
2022-10-23T13:13:12.288Z,24.47
2022-10-23T13:15:45.321Z,24.50
2022-10-23T13:18:14.799Z,24.46
2022-10-23T13:20:58.702Z,24.44
2022-10-23T13:23:36.419Z,24.52
2022-10-23T13:26:21.799Z,24.79
2022-10-23T13:28:50.150Z,24.49
2022-10-23T13:31:17.402Z,24.47
2022-10-23T13:34:16.473Z,24.47
2022-10-23T13:36:56.781Z,24.46
2022-10-23T13:39:27.580Z,24.38
2022-10-23T13:41:54.870Z,24.43
2022-10-23T13:44:24.720Z,24.83
2022-10-23T13:46:52.505Z,24.88
2022-10-23T13:49:20.201Z,24.70
2022-10-23T13:51:55.290Z,24.44
2022-10-23T13:56:59.935Z,24.82
2022-10-23T13:59:27.385Z,24.52
2022-10-23T14:01:54.919Z,24.44
2022-10-23T14:04:23.938Z,24.36
2022-10-23T14:06:55.069Z,24.04
2022-10-23T14:09:22.551Z,23.65
2022-10-23T14:11:49.930Z,23.57
2022-10-23T14:14:17.282Z,23.45
2022-10-23T14:16:44.558Z,23.38
2022-10-23T14:19:12.160Z,23.38
2022-10-23T14:21:39.607Z,23.13
2022-10-23T14:24:07.085Z,23.05
2022-10-23T14:26:35.671Z,22.95
2022-10-23T14:29:07.643Z,22.85
2022-10-23T14:31:38.775Z,22.76
2022-10-23T14:34:06.009Z,22.73
2022-10-23T14:36:43.598Z,22.61
2022-10-23T14:39:17.495Z,22.58
2022-10-23T14:41:44.902Z,22.46
2022-10-23T14:44:12.212Z,22.20
2022-10-23T14:46:39.635Z,22.20
2022-10-23T14:49:07.062Z,22.11
2022-10-23T14:51:34.542Z,22.04
2022-10-23T14:54:05.413Z,22.02
2022-10-23T14:56:36.485Z,21.74
2022-10-23T14:59:05.271Z,21.72
2022-10-23T15:01:35.185Z,21.60
2022-10-23T15:04:02.661Z,21.43
2022-10-23T15:06:29.971Z,21.32
2022-10-23T15:08:57.327Z,21.20
2022-10-23T15:11:25.816Z,21.16
2022-10-23T15:13:54.982Z,21.05
2022-10-23T15:16:23.637Z,20.94
2022-10-23T15:18:51.600Z,20.90
2022-10-23T15:21:19.262Z,20.77
2022-10-23T15:23:47.594Z,20.69
2022-10-23T15:26:21.253Z,20.62
2022-10-23T15:28:54.496Z,20.57
2022-10-23T15:31:30.950Z,20.49
2022-10-23T15:33:58.413Z,20.40
2022-10-23T15:36:26.839Z,20.25
2022-10-23T15:38:54.241Z,20.18
2022-10-23T15:41:28.395Z,20.07
2022-10-23T15:43:55.770Z,19.96
2022-10-23T15:46:23.643Z,19.84
2022-10-23T15:48:51.280Z,19.74
2022-10-23T15:51:18.718Z,19.65
2022-10-23T15:53:46.077Z,19.57
2022-10-23T15:56:13.417Z,19.38
2022-10-23T15:58:40.798Z,19.38
2022-10-23T16:01:08.651Z,19.29
2022-10-23T16:03:38.221Z,19.25
2022-10-23T16:06:11.419Z,19.21
2022-10-23T16:08:39.470Z,19.17
2022-10-23T16:11:32.353Z,19.10
2022-10-23T16:14:00.896Z,19.21
2022-10-23T16:16:29.432Z,19.18
2022-10-23T16:19:00.102Z,19.11
2022-10-23T16:21:31.433Z,19.05
2022-10-23T16:24:00.955Z,19.03
2022-10-23T16:26:30.027Z,18.97
2022-10-23T16:29:00.167Z,18.98
2022-10-23T16:31:28.471Z,18.99
2022-10-23T16:33:58.784Z,18.89
2022-10-23T16:36:26.773Z,18.90
2022-10-23T16:39:18.273Z,18.81
2022-10-23T16:42:06.308Z,18.72
2022-10-23T16:44:57.206Z,18.73
2022-10-23T16:47:24.821Z,18.69
2022-10-23T16:49:52.212Z,18.61
2022-10-23T16:52:19.588Z,18.55
2022-10-23T16:54:46.910Z,18.51
2022-10-23T16:57:14.236Z,18.47
2022-10-23T16:59:41.737Z,18.42
2022-10-23T17:02:13.273Z,18.36
2022-10-23T17:04:40.993Z,18.36
2022-10-23T17:07:08.472Z,18.32
2022-10-23T17:09:36.100Z,18.26
2022-10-23T17:12:03.515Z,18.02
2022-10-23T17:14:30.879Z,18.23
2022-10-23T17:17:01.812Z,18.17
2022-10-23T17:19:44.718Z,18.13
2022-10-23T17:22:13.591Z,18.14
2022-10-23T17:24:45.339Z,18.07
2022-10-23T17:27:15.083Z,18.03
2022-10-23T17:29:42.530Z,18.07
2022-10-23T17:32:09.987Z,17.99
2022-10-23T17:34:38.237Z,17.88
2022-10-23T17:37:05.713Z,17.99
2022-10-23T17:39:33.124Z,17.97
2022-10-23T17:42:00.504Z,18.00
2022-10-23T17:44:29.493Z,18.02
2022-10-23T17:46:57.105Z,17.95
2022-10-23T17:49:25.207Z,18.00
2022-10-23T17:51:57.649Z,18.10
2022-10-23T17:54:26.857Z,18.12
2022-10-23T17:56:54.594Z,18.19
2022-10-23T17:59:22.895Z,18.05
2022-10-23T18:01:50.728Z,17.88
2022-10-23T18:04:20.320Z,17.76
2022-10-23T18:06:50.978Z,17.70
2022-10-23T18:09:22.965Z,17.61
2022-10-23T18:11:51.028Z,17.84
2022-10-23T18:14:20.269Z,17.80
2022-10-23T18:16:48.519Z,17.70
2022-10-23T18:19:18.446Z,17.62
2022-10-23T18:21:47.223Z,17.56
2022-10-23T18:24:15.526Z,17.59
2022-10-23T18:26:43.819Z,17.52
2022-10-23T18:29:12.671Z,17.52
2022-10-23T18:31:40.765Z,17.39
2022-10-23T18:34:18.344Z,17.25
2022-10-23T18:36:46.069Z,17.20
2022-10-23T18:39:16.513Z,17.16
2022-10-23T18:41:46.300Z,17.08
2022-10-23T18:44:20.745Z,17.00
2022-10-23T18:46:48.900Z,17.05
2022-10-23T18:49:18.757Z,17.02
2022-10-23T18:51:46.226Z,17.03
2022-10-23T18:54:15.702Z,16.99
2022-10-23T18:56:44.179Z,16.95
2022-10-23T18:59:15.201Z,16.93
2022-10-23T19:01:43.425Z,16.97
2022-10-23T19:04:16.310Z,16.84
2022-10-23T19:06:45.015Z,16.88
2022-10-23T19:09:14.184Z,16.88
2022-10-23T19:11:42.884Z,16.80
2022-10-23T19:14:10.327Z,16.76
2022-10-23T19:16:47.072Z,16.77
2022-10-23T19:19:21.580Z,16.70
2022-10-23T19:21:50.267Z,16.65
2022-10-23T19:24:25.205Z,16.72
2022-10-23T19:26:52.623Z,16.65
2022-10-23T19:29:22.709Z,16.51
2022-10-23T19:31:50.493Z,16.63
2022-10-23T19:34:20.330Z,16.65
2022-10-23T19:36:48.669Z,16.52
2022-10-23T19:39:17.387Z,16.47
2022-10-23T19:41:45.739Z,16.43
2022-10-23T19:44:16.062Z,16.53
2022-10-23T19:46:43.830Z,16.75
2022-10-23T19:49:11.780Z,16.60
2022-10-23T19:51:39.491Z,16.48
2022-10-23T19:54:07.256Z,16.35
2022-10-23T19:56:36.140Z,16.28
2022-10-23T19:59:03.744Z,16.51
2022-10-23T20:01:31.491Z,16.56
2022-10-23T20:03:59.201Z,16.42
2022-10-23T20:06:29.950Z,16.30
2022-10-23T20:08:58.017Z,16.28
2022-10-23T20:11:31.316Z,16.27
2022-10-23T20:13:58.919Z,16.45
2022-10-23T20:16:32.602Z,16.48
2022-10-23T20:19:07.071Z,16.37
2022-10-23T20:21:39.346Z,16.31
2022-10-23T20:24:07.511Z,16.21
2022-10-23T20:26:35.091Z,16.25
2022-10-23T20:29:02.476Z,16.39
2022-10-23T20:31:29.896Z,16.61
2022-10-23T20:33:57.505Z,16.65
2022-10-23T20:36:35.829Z,16.75
2022-10-23T20:39:06.531Z,16.78
2022-10-23T20:41:37.074Z,16.74
2022-10-23T20:44:07.242Z,16.78
2022-10-23T20:46:35.015Z,16.63
2022-10-23T20:49:02.837Z,16.69
2022-10-23T20:51:30.268Z,16.73
2022-10-23T20:53:57.962Z,16.70
2022-10-23T20:56:38.878Z,16.74
2022-10-23T20:59:14.747Z,16.66
2022-10-23T21:01:49.816Z,16.71
2022-10-23T21:04:23.720Z,16.74
2022-10-23T21:07:10.309Z,16.76
2022-10-23T21:09:38.553Z,16.80
2022-10-23T21:12:06.935Z,16.67
2022-10-23T21:14:34.960Z,16.54
2022-10-23T21:17:02.572Z,16.46
2022-10-23T21:19:30.024Z,16.35
2022-10-23T21:21:57.521Z,16.46
2022-10-23T21:24:24.997Z,16.39
2022-10-23T21:26:52.507Z,16.30
2022-10-23T21:29:20.714Z,16.27
2022-10-23T21:31:56.291Z,16.13
2022-10-23T21:34:25.213Z,16.28
2022-10-23T21:39:41.017Z,15.88
2022-10-23T21:42:08.805Z,15.90
2022-10-23T21:44:36.324Z,15.82
2022-10-23T21:47:04.060Z,15.70
2022-10-23T21:49:31.438Z,15.63
2022-10-23T21:51:58.767Z,15.48
2022-10-23T21:54:26.048Z,15.37
2022-10-23T21:56:54.108Z,15.15
2022-10-23T21:59:25.782Z,15.21
2022-10-23T22:01:55.312Z,15.11
2022-10-23T22:04:22.793Z,15.14
2022-10-23T22:06:50.154Z,15.14
2022-10-23T22:09:20.063Z,15.09
2022-10-23T22:11:52.805Z,15.05
2022-10-23T22:14:21.143Z,15.07
2022-10-23T22:16:49.039Z,15.02
2022-10-23T22:19:18.232Z,15.01
2022-10-23T22:21:46.654Z,14.92
2022-10-23T22:24:14.389Z,14.92
2022-10-23T22:26:44.742Z,14.91
2022-10-23T22:29:15.083Z,14.81
2022-10-23T22:31:45.576Z,14.82
2022-10-23T22:34:41.110Z,14.83
2022-10-23T22:37:12.095Z,14.85
2022-10-23T22:39:39.967Z,14.88
2022-10-23T22:42:07.438Z,14.89
2022-10-23T22:44:34.751Z,14.84
2022-10-23T22:47:04.313Z,14.83
2022-10-23T22:49:31.593Z,14.86
2022-10-23T22:51:58.908Z,14.85
2022-10-23T22:54:26.373Z,14.80
2022-10-23T22:56:53.700Z,14.81
2022-10-23T22:59:21.104Z,14.86
2022-10-23T23:01:49.868Z,14.82
2022-10-23T23:07:11.525Z,14.87
2022-10-23T23:09:41.680Z,14.85
2022-10-23T23:12:11.345Z,14.86
2022-10-23T23:14:39.351Z,14.83
2022-10-23T23:17:08.109Z,14.83
2022-10-23T23:19:36.186Z,14.83
2022-10-23T23:22:03.992Z,14.90
2022-10-23T23:24:32.363Z,15.22
2022-10-23T23:26:59.787Z,15.24
2022-10-23T23:29:28.565Z,15.31
2022-10-23T23:31:55.843Z,15.31
2022-10-23T23:34:23.191Z,15.64
2022-10-23T23:36:50.563Z,15.73
2022-10-23T23:39:17.899Z,15.64
2022-10-23T23:41:45.185Z,15.43
2022-10-23T23:44:14.110Z,15.36
2022-10-23T23:46:41.400Z,15.29
2022-10-23T23:49:08.684Z,15.26
2022-10-23T23:51:37.409Z,15.22
2022-10-23T23:54:05.714Z,15.18
2022-10-23T23:56:33.026Z,15.12
2022-10-23T23:59:01.846Z,15.04
